createdAt,value
2018-04-28T00:01:48.886Z,13.57
2018-04-28T00:04:19.008Z,13.43
2018-04-28T00:06:49.134Z,13.57
2018-04-28T00:09:19.237Z,13.87
2018-04-28T00:11:50.065Z,13.80
2018-04-28T00:14:20.506Z,14.33
2018-04-28T00:16:50.422Z,13.73
2018-04-28T00:19:21.252Z,14.20
2018-04-28T00:21:51.271Z,15.60
2018-04-28T00:24:22.426Z,14.60
2018-04-28T00:27:04.523Z,14.70
2018-04-28T00:29:34.606Z,15.67
2018-04-28T00:32:08.452Z,15.47
2018-04-28T00:34:50.324Z,15.00
2018-04-28T00:37:22.005Z,16.90
2018-04-28T00:40:13.275Z,13.97
2018-04-28T00:42:44.247Z,16.23
2018-04-28T00:45:25.940Z,16.97
2018-04-28T00:47:56.405Z,17.17
2018-04-28T00:50:29.355Z,17.90
2018-04-28T00:53:00.139Z,17.83
2018-04-28T00:55:39.336Z,18.03
2018-04-28T00:58:31.874Z,20.40
2018-04-28T01:01:11.321Z,18.73
2018-04-28T01:03:44.835Z,19.50
2018-04-28T01:06:14.748Z,19.00
2018-04-28T01:08:44.850Z,19.73
2018-04-28T01:11:16.504Z,16.60
2018-04-28T01:13:53.281Z,19.47
2018-04-28T01:16:23.884Z,20.03
2018-04-28T01:18:58.017Z,20.80
2018-04-28T01:21:44.900Z,21.07
2018-04-28T01:24:26.543Z,19.70
2018-04-28T01:27:17.129Z,22.00
2018-04-28T01:30:08.549Z,19.10
2018-04-28T01:32:56.080Z,19.20
2018-04-28T01:35:36.757Z,19.57
2018-04-28T01:38:07.688Z,21.63
2018-04-28T01:40:39.544Z,21.20
2018-04-28T01:43:31.167Z,22.73
2018-04-28T01:46:13.197Z,22.20
2018-04-28T01:49:01.633Z,22.00
2018-04-28T01:51:37.528Z,22.30
2018-04-28T01:54:20.357Z,20.97
2018-04-28T01:57:08.741Z,21.33
2018-04-28T01:59:44.607Z,20.30
2018-04-28T02:02:17.483Z,21.77
2018-04-28T02:05:07.056Z,21.33
2018-04-28T02:07:37.903Z,21.90
2018-04-28T02:10:07.927Z,22.60
2018-04-28T02:12:58.421Z,20.73
2018-04-28T02:15:30.587Z,20.03
2018-04-28T02:18:13.157Z,20.90
2018-04-28T02:20:55.214Z,21.37
2018-04-28T02:23:44.051Z,20.43
2018-04-28T02:26:14.896Z,19.93
2018-04-28T02:28:47.756Z,21.53
2018-04-28T02:31:37.556Z,21.07
2018-04-28T02:34:27.239Z,22.17
2018-04-28T02:37:15.291Z,20.97
2018-04-28T02:39:53.670Z,21.53
2018-04-28T02:42:34.666Z,21.40
2018-04-28T02:45:20.346Z,21.47
2018-04-28T02:48:07.218Z,22.43
2018-04-28T02:50:55.313Z,22.60
2018-04-28T02:53:32.040Z,23.80
2018-04-28T02:56:19.975Z,21.80
2018-04-28T02:58:53.525Z,23.20
2018-04-28T03:01:40.130Z,23.17
2018-04-28T03:04:25.294Z,23.10
2018-04-28T03:07:20.817Z,22.23
2018-04-28T03:09:54.631Z,21.30
2018-04-28T03:12:24.541Z,21.67
2018-04-28T03:15:02.240Z,20.97
2018-04-28T03:17:35.011Z,21.30
2018-04-28T03:20:08.818Z,20.60
2018-04-28T03:22:40.770Z,21.13
2018-04-28T03:25:12.338Z,21.37
2018-04-28T03:27:45.545Z,21.10
2018-04-28T03:30:20.059Z,21.73
2018-04-28T03:32:50.902Z,22.10
2018-04-28T03:35:21.757Z,22.43
2018-04-28T03:38:04.047Z,22.20
2018-04-28T03:40:36.917Z,21.77
2018-04-28T03:43:27.844Z,21.47
2018-04-28T03:49:13.851Z,22.10
2018-04-28T03:51:56.863Z,20.87
2018-04-28T03:54:40.355Z,21.63
2018-04-28T03:57:32.139Z,22.40
2018-04-28T04:00:13.828Z,22.47
2018-04-28T04:02:55.812Z,22.67
2018-04-28T04:05:31.776Z,21.93
2018-04-28T04:08:18.891Z,22.30
2018-04-28T04:11:11.339Z,22.43
2018-04-28T04:13:49.751Z,21.60
2018-04-28T04:16:21.929Z,21.63
2018-04-28T04:18:57.740Z,20.07
2018-04-28T04:21:32.878Z,20.47
2018-04-28T04:24:24.852Z,20.57
2018-04-28T04:27:06.224Z,19.63
2018-04-28T04:29:58.267Z,18.03
2018-04-28T04:32:28.786Z,19.23
2018-04-28T04:35:07.558Z,18.13
2018-04-28T04:37:58.729Z,18.47
2018-04-28T04:40:46.360Z,21.20
2018-04-28T04:43:20.162Z,17.60
2018-04-28T04:45:57.046Z,18.07
2018-04-28T04:51:31.485Z,17.50
2018-04-28T04:54:25.826Z,17.23
2018-04-28T04:57:07.667Z,16.77
2018-04-28T04:59:44.864Z,18.43
2018-04-28T05:02:20.802Z,17.23
2018-04-28T05:08:05.770Z,16.40
2018-04-28T05:10:48.121Z,17.07
2018-04-28T05:13:41.888Z,17.83
2018-04-28T05:16:32.020Z,15.33
2018-04-28T05:19:25.240Z,15.93
2018-04-28T05:22:07.239Z,15.17
2018-04-28T05:25:01.737Z,16.27
2018-04-28T05:27:47.305Z,15.37
2018-04-28T05:30:29.511Z,15.30
2018-04-28T05:36:24.340Z,15.63
2018-04-28T05:39:25.782Z,14.17
2018-04-28T05:42:18.447Z,14.30
2018-04-28T05:48:16.811Z,14.80
2018-04-28T05:51:07.333Z,14.00
2018-04-28T05:54:00.603Z,15.20
2018-04-28T05:56:52.562Z,13.80
2018-04-28T05:59:32.276Z,12.97
2018-04-28T06:02:09.063Z,13.23
2018-04-28T06:04:57.297Z,12.97
2018-04-28T06:07:42.573Z,12.27
2018-04-28T06:10:24.897Z,12.83
2018-04-28T06:13:07.332Z,12.57
2018-04-28T06:15:57.799Z,18.70
2018-04-28T06:18:35.699Z,12.03
2018-04-28T06:21:05.601Z,11.63
2018-04-28T06:23:35.619Z,11.03
2018-04-28T06:26:06.167Z,12.37
2018-04-28T06:28:37.467Z,12.13
2018-04-28T06:31:07.723Z,11.83
2018-04-28T06:33:38.660Z,11.63
2018-04-28T06:36:09.069Z,11.07
2018-04-28T06:38:39.799Z,10.43
2018-04-28T06:41:10.891Z,10.90
2018-04-28T06:43:41.278Z,11.57
2018-04-28T06:46:11.918Z,11.27
2018-04-28T06:48:42.107Z,11.20
2018-04-28T06:51:12.285Z,10.17
2018-04-28T06:53:43.426Z,10.87
2018-04-28T06:56:13.447Z,11.53
2018-04-28T06:58:43.664Z,11.13
2018-04-28T07:01:14.058Z,11.63
2018-04-28T07:03:44.108Z,10.77
2018-04-28T07:06:14.217Z,10.87
2018-04-28T07:08:44.658Z,10.33
2018-04-28T07:11:14.985Z,10.50
2018-04-28T07:13:45.615Z,10.53
2018-04-28T07:16:16.131Z,11.13
2018-04-28T07:18:47.320Z,10.53
2018-04-28T07:21:17.411Z,10.57
2018-04-28T07:23:47.420Z,9.43
2018-04-28T07:26:17.735Z,9.63
2018-04-28T07:28:47.860Z,9.60
2018-04-28T07:31:18.383Z,9.37
2018-04-28T07:33:48.409Z,10.40
2018-04-28T07:36:18.438Z,10.07
2018-04-28T07:38:48.410Z,9.47
2018-04-28T07:41:19.239Z,10.57
2018-04-28T07:43:49.297Z,10.83
2018-04-28T07:46:19.433Z,10.37
2018-04-28T07:48:49.543Z,10.43
2018-04-28T07:51:19.659Z,10.73
2018-04-28T07:53:50.405Z,9.90
2018-04-28T07:56:20.423Z,10.07
2018-04-28T07:58:50.428Z,11.50
2018-04-28T08:01:20.568Z,10.97
2018-04-28T08:03:50.785Z,10.30
2018-04-28T08:06:21.726Z,11.47
2018-04-28T08:08:52.222Z,10.87
2018-04-28T08:11:22.640Z,11.53
2018-04-28T08:13:52.993Z,10.93
2018-04-28T08:16:23.219Z,11.73
2018-04-28T08:18:53.444Z,10.90
2018-04-28T08:21:23.867Z,10.17
2018-04-28T08:23:53.780Z,10.80
2018-04-28T08:26:24.375Z,10.87
2018-04-28T08:28:54.840Z,10.27
2018-04-28T08:31:24.895Z,10.30
2018-04-28T08:33:55.185Z,10.30
2018-04-28T08:36:26.243Z,11.53
2018-04-28T08:38:56.409Z,10.77
2018-04-28T08:41:26.465Z,9.77
2018-04-28T08:43:56.487Z,9.47
2018-04-28T08:46:27.028Z,10.53
2018-04-28T08:48:58.777Z,12.53
2018-04-28T08:51:29.256Z,10.60
2018-04-28T08:53:59.391Z,10.17
2018-04-28T08:56:29.855Z,9.60
2018-04-28T08:58:59.774Z,9.90
2018-04-28T09:01:29.800Z,10.03
2018-04-28T09:04:00.328Z,9.47
2018-04-28T09:06:31.056Z,10.60
2018-04-28T09:09:01.786Z,9.67
2018-04-28T09:11:31.606Z,9.50
2018-04-28T09:14:01.411Z,8.83
2018-04-28T09:16:31.735Z,9.43
2018-04-28T09:19:01.662Z,10.37
2018-04-28T09:21:31.783Z,9.73
2018-04-28T09:24:02.618Z,9.07
2018-04-28T09:26:32.532Z,12.40
2018-04-28T09:29:03.480Z,9.43
2018-04-28T09:31:33.546Z,9.53
2018-04-28T09:34:04.221Z,9.47
2018-04-28T09:36:34.140Z,9.53
2018-04-28T09:39:04.267Z,8.27
2018-04-28T09:41:35.432Z,8.10
2018-04-28T09:44:06.088Z,10.00
2018-04-28T09:46:37.011Z,9.00
2018-04-28T09:49:07.086Z,9.17
2018-04-28T09:51:37.361Z,9.47
2018-04-28T09:54:08.043Z,8.77
2018-04-28T09:56:37.960Z,8.87
2018-04-28T09:59:08.503Z,9.10
2018-04-28T10:01:43.919Z,9.37
2018-04-28T10:04:28.381Z,8.70
2018-04-28T10:06:58.931Z,9.10
2018-04-28T10:09:29.061Z,9.47
2018-04-28T10:11:59.739Z,9.57
2018-04-28T10:14:30.298Z,9.70
2018-04-28T10:17:00.893Z,9.73
2018-04-28T10:19:31.383Z,8.60
2018-04-28T10:22:01.394Z,9.70
2018-04-28T10:24:31.300Z,10.07
2018-04-28T10:27:01.908Z,9.47
2018-04-28T10:29:32.340Z,9.73
2018-04-28T10:32:02.799Z,8.50
2018-04-28T10:34:33.228Z,9.50
2018-04-28T10:37:04.244Z,9.17
2018-04-28T10:39:34.884Z,8.57
2018-04-28T10:42:05.116Z,8.47
2018-04-28T10:44:35.439Z,8.97
2018-04-28T10:47:05.464Z,8.70
2018-04-28T10:49:35.902Z,8.93
2018-04-28T10:52:05.812Z,8.17
2018-04-28T10:54:36.297Z,9.40
2018-04-28T10:57:06.155Z,9.63
2018-04-28T10:59:37.360Z,9.60
2018-04-28T11:02:07.688Z,9.60
2018-04-28T11:04:38.256Z,9.47
2018-04-28T11:07:08.367Z,10.00
2018-04-28T11:09:38.277Z,10.20
2018-04-28T11:12:08.467Z,8.77
2018-04-28T11:14:38.420Z,8.90
2018-04-28T11:17:08.445Z,9.20
2018-04-28T11:19:38.743Z,8.80
2018-04-28T11:22:09.185Z,8.87
2018-04-28T11:24:39.720Z,9.00
2018-04-28T11:27:10.348Z,9.10
2018-04-28T11:29:40.377Z,8.93
2018-04-28T11:32:10.388Z,8.63
2018-04-28T11:34:41.237Z,9.10
2018-04-28T11:37:11.041Z,9.13
2018-04-28T11:39:40.855Z,8.50
2018-04-28T11:42:11.176Z,8.77
2018-04-28T11:44:41.045Z,9.20
2018-04-28T11:47:11.431Z,16.53
2018-04-28T11:49:41.639Z,10.17
2018-04-28T11:52:12.771Z,8.97
2018-04-28T11:54:43.423Z,8.90
2018-04-28T11:57:14.060Z,9.40
2018-04-28T11:59:44.908Z,8.90
2018-04-28T12:02:15.366Z,10.97
2018-04-28T12:04:46.111Z,9.33
2018-04-28T12:07:16.593Z,9.00
2018-04-28T12:09:46.890Z,10.23
2018-04-28T12:12:17.639Z,10.40
2018-04-28T12:14:48.404Z,9.37
2018-04-28T12:17:19.600Z,9.57
2018-04-28T12:19:50.096Z,11.97
2018-04-28T12:22:20.273Z,8.97
2018-04-28T12:24:50.502Z,9.83
2018-04-28T12:27:20.509Z,10.40
2018-04-28T12:29:51.597Z,9.73
2018-04-28T12:32:21.783Z,10.10
2018-04-28T12:34:51.582Z,10.53
2018-04-28T12:37:21.468Z,10.07
2018-04-28T12:39:51.423Z,10.07
2018-04-28T12:42:21.455Z,9.30
2018-04-28T12:44:51.841Z,10.77
2018-04-28T12:47:21.678Z,9.47
2018-04-28T12:49:52.296Z,9.30
2018-04-28T12:52:22.613Z,9.93
2018-04-28T12:54:53.159Z,9.33
2018-04-28T12:57:23.898Z,9.23
2018-04-28T12:59:53.720Z,9.00
2018-04-28T13:02:24.009Z,8.43
2018-04-28T13:04:55.005Z,8.57
2018-04-28T13:07:25.605Z,9.20
2018-04-28T13:09:56.005Z,7.97
2018-04-28T13:12:26.515Z,8.57
2018-04-28T13:14:57.011Z,7.53
2018-04-28T13:17:27.453Z,7.77
2018-04-28T13:19:58.163Z,7.77
2018-04-28T13:22:28.793Z,7.73
2018-04-28T13:24:59.214Z,7.97
2018-04-28T13:27:29.572Z,8.03
2018-04-28T13:29:59.941Z,7.27
2018-04-28T13:32:30.366Z,7.53
2018-04-28T13:35:00.621Z,12.83
2018-04-28T13:37:31.179Z,7.90
2018-04-28T13:40:01.640Z,7.33
2018-04-28T13:42:32.438Z,7.83
2018-04-28T13:45:02.821Z,9.53
2018-04-28T13:47:33.537Z,7.60
2018-04-28T13:50:03.900Z,7.43
2018-04-28T13:52:34.272Z,8.83
2018-04-28T13:55:04.447Z,8.60
2018-04-28T13:57:34.781Z,7.70
2018-04-28T14:00:04.593Z,7.43
2018-04-28T14:02:35.025Z,7.97
2018-04-28T14:05:05.246Z,8.40
2018-04-28T14:07:35.744Z,8.87
2018-04-28T14:10:05.616Z,8.40
2018-04-28T14:12:35.449Z,7.87
2018-04-28T14:15:05.308Z,9.43
2018-04-28T14:17:35.759Z,7.70
2018-04-28T14:20:05.772Z,8.17
2018-04-28T14:22:35.691Z,7.33
2018-04-28T14:25:05.406Z,7.20
2018-04-28T14:27:35.200Z,7.20
2018-04-28T14:30:04.938Z,7.20
2018-04-28T14:32:36.210Z,7.07
2018-04-28T14:35:06.595Z,7.90
2018-04-28T14:37:37.228Z,7.50
2018-04-28T14:40:07.977Z,7.40
2018-04-28T14:42:41.693Z,7.57
2018-04-28T14:45:12.050Z,7.57
2018-04-28T14:47:42.261Z,8.10
2018-04-28T14:50:12.381Z,8.43
2018-04-28T14:52:42.677Z,8.47
2018-04-28T14:55:13.109Z,8.73
2018-04-28T14:57:42.907Z,9.53
2018-04-28T15:00:12.676Z,9.50
2018-04-28T15:02:42.640Z,9.37
2018-04-28T15:05:12.495Z,9.47
2018-04-28T15:07:42.970Z,9.50
2018-04-28T15:10:13.477Z,9.90
2018-04-28T15:12:43.987Z,9.50
2018-04-28T15:15:14.319Z,8.90
2018-04-28T15:17:44.107Z,7.93
2018-04-28T15:20:14.217Z,8.83
2018-04-28T15:22:44.097Z,8.30
2018-04-28T15:25:14.402Z,8.23
2018-04-28T15:27:44.561Z,8.23
2018-04-28T15:30:15.242Z,8.03
2018-04-28T15:32:44.981Z,8.33
2018-04-28T15:35:15.342Z,8.33
2018-04-28T15:37:45.271Z,8.00
2018-04-28T15:40:15.309Z,7.67
2018-04-28T15:42:45.405Z,7.50
2018-04-28T15:45:15.472Z,7.13
2018-04-28T15:47:45.283Z,7.77
2018-04-28T15:50:15.250Z,7.93
2018-04-28T15:52:45.439Z,8.20
2018-04-28T15:55:16.937Z,7.27
2018-04-28T15:57:47.043Z,7.87
2018-04-28T16:00:17.154Z,6.73
2018-04-28T16:02:47.313Z,8.13
2018-04-28T16:05:17.094Z,7.73
2018-04-28T16:07:47.335Z,8.20
2018-04-28T16:10:17.596Z,7.87
2018-04-28T16:12:48.320Z,8.30
2018-04-28T16:15:18.043Z,7.87
2018-04-28T16:17:47.932Z,7.80
2018-04-28T16:20:18.283Z,8.03
2018-04-28T16:22:48.467Z,8.10
2018-04-28T16:25:18.280Z,7.53
2018-04-28T16:27:48.127Z,7.57
2018-04-28T16:30:17.853Z,7.93
2018-04-28T16:32:48.375Z,7.47
2018-04-28T16:35:18.209Z,7.80
2018-04-28T16:37:48.488Z,8.10
2018-04-28T16:40:18.768Z,8.30
2018-04-28T16:42:48.604Z,8.13
2018-04-28T16:45:19.094Z,8.33
2018-04-28T16:47:50.072Z,8.00
2018-04-28T16:50:19.989Z,8.80
2018-04-28T16:52:49.743Z,8.10
2018-04-28T16:55:20.038Z,8.33
2018-04-28T16:57:50.469Z,9.07
2018-04-28T17:00:20.841Z,9.37
2018-04-28T17:02:51.276Z,9.40
2018-04-28T17:05:21.380Z,8.77
2018-04-28T17:07:51.869Z,8.73
2018-04-28T17:10:21.793Z,8.83
2018-04-28T17:12:52.391Z,9.80
2018-04-28T17:15:22.576Z,10.00
2018-04-28T17:17:54.449Z,10.00
2018-04-28T17:20:24.648Z,9.83
2018-04-28T17:22:55.092Z,10.23
2018-04-28T17:25:24.963Z,9.73
2018-04-28T17:27:55.617Z,10.10
2018-04-28T17:30:25.732Z,10.23
2018-04-28T17:32:56.163Z,10.03
2018-04-28T17:35:26.400Z,9.90
2018-04-28T17:37:56.862Z,9.87
2018-04-28T17:40:27.138Z,8.80
2018-04-28T17:42:57.738Z,7.60
2018-04-28T17:45:28.360Z,7.80
2018-04-28T17:47:58.148Z,6.83
2018-04-28T17:50:28.972Z,7.37
2018-04-28T17:52:59.321Z,7.83
2018-04-28T17:55:29.905Z,6.83
2018-04-28T17:58:00.181Z,7.03
2018-04-28T18:00:29.981Z,6.70
2018-04-28T18:03:00.616Z,6.87
2018-04-28T18:05:30.351Z,6.47
2018-04-28T18:08:00.861Z,7.00
2018-04-28T18:10:30.616Z,7.40
2018-04-28T18:13:01.991Z,7.47
2018-04-28T18:15:32.234Z,7.10
2018-04-28T18:18:02.645Z,6.40
2018-04-28T18:20:32.339Z,6.33
2018-04-28T18:23:02.309Z,6.90
2018-04-28T18:25:32.801Z,6.60
2018-04-28T18:28:03.268Z,6.47
2018-04-28T18:30:33.885Z,6.50
2018-04-28T18:33:04.214Z,6.80
2018-04-28T18:35:34.510Z,6.03
2018-04-28T18:38:04.774Z,6.53
2018-04-28T18:40:35.092Z,6.60
2018-04-28T18:43:05.117Z,6.80
2018-04-28T18:45:35.585Z,7.00
2018-04-28T18:48:05.824Z,6.73
2018-04-28T18:50:36.072Z,6.70
2018-04-28T18:53:06.449Z,6.23
2018-04-28T18:55:36.778Z,9.13
2018-04-28T18:58:06.979Z,6.23
2018-04-28T19:00:37.312Z,6.43
2018-04-28T19:03:07.468Z,6.53
2018-04-28T19:05:37.994Z,6.33
2018-04-28T19:08:08.075Z,6.33
2018-04-28T19:10:38.610Z,6.20
2018-04-28T19:13:08.610Z,6.60
2018-04-28T19:15:38.627Z,6.60
2018-04-28T19:18:08.907Z,6.73
2018-04-28T19:20:39.385Z,6.97
2018-04-28T19:23:09.720Z,6.70
2018-04-28T19:25:39.461Z,6.83
2018-04-28T19:28:09.199Z,6.33
2018-04-28T19:30:38.979Z,6.20
2018-04-28T19:33:08.828Z,6.87
2018-04-28T19:35:38.639Z,6.30
2018-04-28T19:38:08.543Z,6.97
2018-04-28T19:40:38.308Z,6.50
2018-04-28T19:43:08.159Z,6.63
2018-04-28T19:45:37.930Z,6.63
2018-04-28T19:48:07.649Z,6.73
2018-04-28T19:50:37.434Z,6.57
2018-04-28T19:53:07.206Z,6.90
2018-04-28T19:55:37.146Z,6.00
2018-04-28T19:58:06.950Z,6.60
2018-04-28T20:00:36.692Z,6.80
2018-04-28T20:03:06.526Z,6.53
2018-04-28T20:05:36.295Z,7.37
2018-04-28T20:08:06.085Z,7.90
2018-04-28T20:10:35.806Z,7.60
2018-04-28T20:13:05.651Z,7.00
2018-04-28T20:15:35.496Z,7.50
2018-04-28T20:18:05.273Z,7.73
2018-04-28T20:20:35.096Z,7.23
2018-04-28T20:23:16.648Z,7.37
2018-04-28T20:25:46.469Z,7.00
2018-04-28T20:28:16.214Z,7.03
2018-04-28T20:30:45.991Z,6.90
2018-04-28T20:33:15.710Z,7.50
2018-04-28T20:35:45.560Z,6.97
2018-04-28T20:38:15.382Z,7.00
2018-04-28T20:40:45.171Z,7.10
2018-04-28T20:43:15.034Z,7.53
2018-04-28T20:45:44.768Z,7.47
2018-04-28T20:48:14.474Z,7.40
2018-04-28T20:50:44.236Z,7.00
2018-04-28T20:53:14.031Z,7.47
2018-04-28T20:55:44.003Z,7.93
2018-04-28T20:58:13.950Z,7.00
2018-04-28T21:00:44.106Z,7.47
2018-04-28T21:03:14.206Z,7.20
2018-04-28T21:05:44.363Z,7.30
2018-04-28T21:08:15.042Z,7.23
2018-04-28T21:10:45.872Z,7.43
2018-04-28T21:13:15.654Z,7.20
2018-04-28T21:15:45.813Z,6.60
2018-04-28T21:18:16.503Z,7.17
2018-04-28T21:20:46.967Z,7.10
2018-04-28T21:23:17.621Z,6.93
2018-04-28T21:25:47.771Z,6.37
2018-04-28T21:28:18.352Z,6.83
